sensor_id;sensor_type;location;lat;lon;timestamp;temperature;humidity
7030;DHT22;3556;53.500;10.176;2023-01-04T00:01:04;5.80;99.90
7030;DHT22;3556;53.500;10.176;2023-01-04T00:03:30;5.80;99.90
7030;DHT22;3556;53.500;10.176;2023-01-04T00:06:01;5.80;99.90
7030;DHT22;3556;53.500;10.176;2023-01-04T00:08:27;5.80;99.90
7030;DHT22;3556;53.500;10.176;2023-01-04T00:10:58;5.90;99.90
7030;DHT22;3556;53.500;10.176;2023-01-04T00:13:24;5.90;99.90
7030;DHT22;3556;53.500;10.176;2023-01-04T00:15:49;5.90;99.90
7030;DHT22;3556;53.500;10.176;2023-01-04T00:18:15;5.90;99.90
7030;DHT22;3556;53.500;10.176;2023-01-04T00:20:41;5.90;99.90
7030;DHT22;3556;53.500;10.176;2023-01-04T00:23:06;6.00;99.90
7030;DHT22;3556;53.500;10.176;2023-01-04T00:25:32;5.90;99.90
7030;DHT22;3556;53.500;10.176;2023-01-04T00:27:57;5.90;99.90
7030;DHT22;3556;53.500;10.176;2023-01-04T00:30:23;5.90;99.90
7030;DHT22;3556;53.500;10.176;2023-01-04T00:32:48;5.90;99.90
7030;DHT22;3556;53.500;10.176;2023-01-04T00:35:14;5.90;99.90
7030;DHT22;3556;53.500;10.176;2023-01-04T00:37:40;5.90;99.90
7030;DHT22;3556;53.500;10.176;2023-01-04T00:40:06;6.00;99.90
7030;DHT22;3556;53.500;10.176;2023-01-04T00:42:31;6.00;99.90
7030;DHT22;3556;53.500;10.176;2023-01-04T00:44:57;6.00;99.90
7030;DHT22;3556;53.500;10.176;2023-01-04T00:47:22;6.00;99.90
7030;DHT22;3556;53.500;10.176;2023-01-04T00:49:48;6.00;99.90
7030;DHT22;3556;53.500;10.176;2023-01-04T00:52:14;6.00;99.90
7030;DHT22;3556;53.500;10.176;2023-01-04T00:54:39;6.00;99.90
7030;DHT22;3556;53.500;10.176;2023-01-04T00:57:05;6.00;99.90
7030;DHT22;3556;53.500;10.176;2023-01-04T00:59:31;6.00;99.90
7030;DHT22;3556;53.500;10.176;2023-01-04T01:01:57;6.00;99.90
7030;DHT22;3556;53.500;10.176;2023-01-04T01:04:23;6.00;99.90
7030;DHT22;3556;53.500;10.176;2023-01-04T01:06:49;6.00;99.90
7030;DHT22;3556;53.500;10.176;2023-01-04T01:09:15;6.10;99.90
7030;DHT22;3556;53.500;10.176;2023-01-04T01:11:41;6.20;99.90
7030;DHT22;3556;53.500;10.176;2023-01-04T01:14:08;6.20;99.90
7030;DHT22;3556;53.500;10.176;2023-01-04T01:16:36;6.30;99.90
7030;DHT22;3556;53.500;10.176;2023-01-04T01:19:02;6.40;99.90
7030;DHT22;3556;53.500;10.176;2023-01-04T01:21:28;6.40;99.90
7030;DHT22;3556;53.500;10.176;2023-01-04T01:23:54;6.40;99.90
7030;DHT22;3556;53.500;10.176;2023-01-04T01:26:22;6.50;99.90
7030;DHT22;3556;53.500;10.176;2023-01-04T01:28:48;6.50;99.90
7030;DHT22;3556;53.500;10.176;2023-01-04T01:31:22;6.60;99.90
7030;DHT22;3556;53.500;10.176;2023-01-04T01:33:49;6.60;99.90
7030;DHT22;3556;53.500;10.176;2023-01-04T01:36:17;6.60;99.90
7030;DHT22;3556;53.500;10.176;2023-01-04T01:38:44;6.70;99.90
7030;DHT22;3556;53.500;10.176;2023-01-04T01:41:36;6.70;99.90
7030;DHT22;3556;53.500;10.176;2023-01-04T01:49:33;6.70;99.90
7030;DHT22;3556;53.500;10.176;2023-01-04T01:52:06;6.70;99.90
7030;DHT22;3556;53.500;10.176;2023-01-04T01:54:38;6.70;99.90
7030;DHT22;3556;53.500;10.176;2023-01-04T01:57:06;6.80;99.90
7030;DHT22;3556;53.500;10.176;2023-01-04T01:59:36;6.70;99.90
7030;DHT22;3556;53.500;10.176;2023-01-04T02:02:03;6.70;99.90
7030;DHT22;3556;53.500;10.176;2023-01-04T02:04:29;6.70;99.90
7030;DHT22;3556;53.500;10.176;2023-01-04T02:06:56;6.70;99.90
7030;DHT22;3556;53.500;10.176;2023-01-04T02:09:22;6.80;99.90
7030;DHT22;3556;53.500;10.176;2023-01-04T02:11:48;6.70;99.90
7030;DHT22;3556;53.500;10.176;2023-01-04T02:14:15;6.80;99.90
7030;DHT22;3556;53.500;10.176;2023-01-04T02:17:16;6.80;99.90
7030;DHT22;3556;53.500;10.176;2023-01-04T02:19:59;6.80;99.90
7030;DHT22;3556;53.500;10.176;2023-01-04T02:31:50;6.80;99.90
7030;DHT22;3556;53.500;10.176;2023-01-04T02:34:35;6.80;99.90
7030;DHT22;3556;53.500;10.176;2023-01-04T02:37:29;6.90;99.90
7030;DHT22;3556;53.500;10.176;2023-01-04T02:40:09;6.90;99.90
7030;DHT22;3556;53.500;10.176;2023-01-04T02:45:40;6.80;99.90
7030;DHT22;3556;53.500;10.176;2023-01-04T02:48:07;6.80;99.90
7030;DHT22;3556;53.500;10.176;2023-01-04T02:50:57;6.80;99.90
7030;DHT22;3556;53.500;10.176;2023-01-04T02:56:14;6.80;99.90
7030;DHT22;3556;53.500;10.176;2023-01-04T02:59:13;6.80;99.90
7030;DHT22;3556;53.500;10.176;2023-01-04T03:02:17;6.90;99.90
7030;DHT22;3556;53.500;10.176;2023-01-04T03:08:24;6.90;99.90
7030;DHT22;3556;53.500;10.176;2023-01-04T03:11:09;6.90;99.90
7030;DHT22;3556;53.500;10.176;2023-01-04T03:14:12;6.90;99.90
7030;DHT22;3556;53.500;10.176;2023-01-04T03:16:40;7.00;99.90
7030;DHT22;3556;53.500;10.176;2023-01-04T03:19:07;7.00;99.90
7030;DHT22;3556;53.500;10.176;2023-01-04T03:21:34;7.00;99.90
7030;DHT22;3556;53.500;10.176;2023-01-04T03:24:02;7.00;99.90
7030;DHT22;3556;53.500;10.176;2023-01-04T03:26:54;7.00;99.90
7030;DHT22;3556;53.500;10.176;2023-01-04T03:29:48;7.10;99.90
7030;DHT22;3556;53.500;10.176;2023-01-04T03:32:51;7.10;99.90
7030;DHT22;3556;53.500;10.176;2023-01-04T03:35:46;7.10;99.90
7030;DHT22;3556;53.500;10.176;2023-01-04T03:38:36;7.10;99.90
7030;DHT22;3556;53.500;10.176;2023-01-04T03:41:29;7.10;99.90
7030;DHT22;3556;53.500;10.176;2023-01-04T03:44:40;7.20;99.90
7030;DHT22;3556;53.500;10.176;2023-01-04T03:47:36;7.30;99.90
7030;DHT22;3556;53.500;10.176;2023-01-04T03:50:40;7.30;99.90
7030;DHT22;3556;53.500;10.176;2023-01-04T03:53:07;7.30;99.90
7030;DHT22;3556;53.500;10.176;2023-01-04T03:55:34;7.30;99.90
7030;DHT22;3556;53.500;10.176;2023-01-04T03:58:01;7.30;99.90
7030;DHT22;3556;53.500;10.176;2023-01-04T04:00:27;7.30;99.90
7030;DHT22;3556;53.500;10.176;2023-01-04T04:02:53;7.30;99.90
7030;DHT22;3556;53.500;10.176;2023-01-04T04:05:36;7.30;99.90
7030;DHT22;3556;53.500;10.176;2023-01-04T04:08:21;7.30;99.90
7030;DHT22;3556;53.500;10.176;2023-01-04T04:10:54;7.20;99.90
7030;DHT22;3556;53.500;10.176;2023-01-04T04:13:20;7.20;99.90
7030;DHT22;3556;53.500;10.176;2023-01-04T04:15:47;7.20;99.90
7030;DHT22;3556;53.500;10.176;2023-01-04T04:18:12;7.10;99.90
7030;DHT22;3556;53.500;10.176;2023-01-04T04:20:38;7.10;99.90
7030;DHT22;3556;53.500;10.176;2023-01-04T04:23:04;7.10;99.90
7030;DHT22;3556;53.500;10.176;2023-01-04T04:25:29;7.00;99.90
7030;DHT22;3556;53.500;10.176;2023-01-04T04:27:55;7.00;99.90
7030;DHT22;3556;53.500;10.176;2023-01-04T04:30:21;6.90;99.90
7030;DHT22;3556;53.500;10.176;2023-01-04T04:32:46;6.90;99.90
7030;DHT22;3556;53.500;10.176;2023-01-04T04:35:12;6.80;99.90
7030;DHT22;3556;53.500;10.176;2023-01-04T04:37:37;6.70;99.90
7030;DHT22;3556;53.500;10.176;2023-01-04T04:40:04;6.70;99.90
7030;DHT22;3556;53.500;10.176;2023-01-04T04:42:30;6.70;99.90
7030;DHT22;3556;53.500;10.176;2023-01-04T04:44:55;6.60;99.90
7030;DHT22;3556;53.500;10.176;2023-01-04T04:47:21;6.60;99.90
7030;DHT22;3556;53.500;10.176;2023-01-04T04:49:47;6.60;99.90
7030;DHT22;3556;53.500;10.176;2023-01-04T04:52:12;6.50;99.90
7030;DHT22;3556;53.500;10.176;2023-01-04T04:54:38;6.60;99.90
7030;DHT22;3556;53.500;10.176;2023-01-04T04:57:03;6.50;99.90
7030;DHT22;3556;53.500;10.176;2023-01-04T04:59:29;6.50;99.90
7030;DHT22;3556;53.500;10.176;2023-01-04T05:01:55;6.50;99.90
7030;DHT22;3556;53.500;10.176;2023-01-04T05:04:20;6.50;99.90
7030;DHT22;3556;53.500;10.176;2023-01-04T05:06:47;6.50;99.90
7030;DHT22;3556;53.500;10.176;2023-01-04T05:09:13;6.50;99.90
7030;DHT22;3556;53.500;10.176;2023-01-04T05:11:40;6.50;99.90
7030;DHT22;3556;53.500;10.176;2023-01-04T05:14:24;6.50;99.90
7030;DHT22;3556;53.500;10.176;2023-01-04T05:16:50;6.50;99.90
7030;DHT22;3556;53.500;10.176;2023-01-04T05:19:16;6.50;99.90
7030;DHT22;3556;53.500;10.176;2023-01-04T05:21:41;6.50;99.90
7030;DHT22;3556;53.500;10.176;2023-01-04T05:24:08;6.50;99.90
7030;DHT22;3556;53.500;10.176;2023-01-04T05:26:35;6.40;99.90
7030;DHT22;3556;53.500;10.176;2023-01-04T05:29:00;6.40;99.90
7030;DHT22;3556;53.500;10.176;2023-01-04T05:31:26;6.50;99.90
7030;DHT22;3556;53.500;10.176;2023-01-04T05:33:51;6.50;99.90
7030;DHT22;3556;53.500;10.176;2023-01-04T05:36:17;6.50;99.90
7030;DHT22;3556;53.500;10.176;2023-01-04T05:38:43;6.50;99.90
7030;DHT22;3556;53.500;10.176;2023-01-04T05:41:08;6.50;99.90
7030;DHT22;3556;53.500;10.176;2023-01-04T05:43:54;6.50;99.90
7030;DHT22;3556;53.500;10.176;2023-01-04T05:46:20;6.60;99.90
7030;DHT22;3556;53.500;10.176;2023-01-04T05:48:46;6.50;99.90
7030;DHT22;3556;53.500;10.176;2023-01-04T05:51:11;6.60;99.90
7030;DHT22;3556;53.500;10.176;2023-01-04T05:53:37;6.70;99.90
7030;DHT22;3556;53.500;10.176;2023-01-04T05:56:03;6.60;99.90
7030;DHT22;3556;53.500;10.176;2023-01-04T05:58:29;6.70;99.90
7030;DHT22;3556;53.500;10.176;2023-01-04T06:00:55;6.70;99.90
7030;DHT22;3556;53.500;10.176;2023-01-04T06:03:20;6.70;99.90
7030;DHT22;3556;53.500;10.176;2023-01-04T06:05:50;6.80;99.90
7030;DHT22;3556;53.500;10.176;2023-01-04T06:08:15;6.80;99.90
7030;DHT22;3556;53.500;10.176;2023-01-04T06:10:41;6.80;99.90
7030;DHT22;3556;53.500;10.176;2023-01-04T06:13:06;6.80;99.90
7030;DHT22;3556;53.500;10.176;2023-01-04T06:15:32;6.90;99.90
7030;DHT22;3556;53.500;10.176;2023-01-04T06:17:57;6.90;99.90
7030;DHT22;3556;53.500;10.176;2023-01-04T06:20:23;6.90;99.90
7030;DHT22;3556;53.500;10.176;2023-01-04T06:22:49;6.90;99.90
7030;DHT22;3556;53.500;10.176;2023-01-04T06:25:14;7.00;99.90
7030;DHT22;3556;53.500;10.176;2023-01-04T06:27:40;7.00;99.90
7030;DHT22;3556;53.500;10.176;2023-01-04T06:30:06;7.10;99.90
7030;DHT22;3556;53.500;10.176;2023-01-04T06:32:32;7.10;99.90
7030;DHT22;3556;53.500;10.176;2023-01-04T06:34:57;7.20;99.90
7030;DHT22;3556;53.500;10.176;2023-01-04T06:37:23;7.20;99.90
7030;DHT22;3556;53.500;10.176;2023-01-04T06:39:49;7.30;99.90
7030;DHT22;3556;53.500;10.176;2023-01-04T06:42:14;7.40;99.90
7030;DHT22;3556;53.500;10.176;2023-01-04T06:44:58;7.40;99.90
7030;DHT22;3556;53.500;10.176;2023-01-04T06:47:24;7.40;99.90
7030;DHT22;3556;53.500;10.176;2023-01-04T06:49:50;7.40;99.90
7030;DHT22;3556;53.500;10.176;2023-01-04T06:52:15;7.40;99.90
7030;DHT22;3556;53.500;10.176;2023-01-04T06:54:41;7.50;99.90
7030;DHT22;3556;53.500;10.176;2023-01-04T06:57:06;7.50;99.90
7030;DHT22;3556;53.500;10.176;2023-01-04T06:59:32;7.50;99.90
7030;DHT22;3556;53.500;10.176;2023-01-04T07:01:58;7.60;99.90
7030;DHT22;3556;53.500;10.176;2023-01-04T07:04:24;7.70;99.90
7030;DHT22;3556;53.500;10.176;2023-01-04T07:06:49;7.70;99.90
7030;DHT22;3556;53.500;10.176;2023-01-04T07:09:15;7.80;99.90
7030;DHT22;3556;53.500;10.176;2023-01-04T07:11:40;7.80;99.90
7030;DHT22;3556;53.500;10.176;2023-01-04T07:14:06;7.80;99.90
7030;DHT22;3556;53.500;10.176;2023-01-04T07:16:31;7.90;99.90
7030;DHT22;3556;53.500;10.176;2023-01-04T07:18:57;7.90;99.90
7030;DHT22;3556;53.500;10.176;2023-01-04T07:21:23;7.90;99.90
7030;DHT22;3556;53.500;10.176;2023-01-04T07:23:50;7.90;99.90
7030;DHT22;3556;53.500;10.176;2023-01-04T07:26:15;8.00;99.90
7030;DHT22;3556;53.500;10.176;2023-01-04T07:28:41;7.90;99.90
7030;DHT22;3556;53.500;10.176;2023-01-04T07:31:25;8.00;99.90
7030;DHT22;3556;53.500;10.176;2023-01-04T07:33:50;8.00;99.90
7030;DHT22;3556;53.500;10.176;2023-01-04T07:36:16;8.00;99.90
7030;DHT22;3556;53.500;10.176;2023-01-04T07:38:42;8.00;99.90
7030;DHT22;3556;53.500;10.176;2023-01-04T07:41:08;8.10;99.90
7030;DHT22;3556;53.500;10.176;2023-01-04T07:43:33;8.10;99.90
7030;DHT22;3556;53.500;10.176;2023-01-04T07:45:59;8.20;99.90
7030;DHT22;3556;53.500;10.176;2023-01-04T07:48:25;8.20;99.90
7030;DHT22;3556;53.500;10.176;2023-01-04T07:50:50;8.20;99.90
7030;DHT22;3556;53.500;10.176;2023-01-04T07:53:16;8.20;99.90
7030;DHT22;3556;53.500;10.176;2023-01-04T07:55:43;8.30;99.90
7030;DHT22;3556;53.500;10.176;2023-01-04T07:58:08;8.30;99.90
7030;DHT22;3556;53.500;10.176;2023-01-04T08:00:34;8.30;99.90
7030;DHT22;3556;53.500;10.176;2023-01-04T08:03:00;8.40;99.90
7030;DHT22;3556;53.500;10.176;2023-01-04T08:05:25;8.40;99.90
7030;DHT22;3556;53.500;10.176;2023-01-04T08:07:51;8.40;99.90
7030;DHT22;3556;53.500;10.176;2023-01-04T08:10:17;8.50;99.90
7030;DHT22;3556;53.500;10.176;2023-01-04T08:12:42;8.60;99.90
7030;DHT22;3556;53.500;10.176;2023-01-04T08:15:08;8.60;99.90
7030;DHT22;3556;53.500;10.176;2023-01-04T08:17:34;8.60;99.90
7030;DHT22;3556;53.500;10.176;2023-01-04T08:20:00;8.60;99.90
7030;DHT22;3556;53.500;10.176;2023-01-04T08:22:26;8.70;99.90
7030;DHT22;3556;53.500;10.176;2023-01-04T08:24:51;8.80;99.90
7030;DHT22;3556;53.500;10.176;2023-01-04T08:27:17;8.80;99.90
7030;DHT22;3556;53.500;10.176;2023-01-04T08:29:42;8.80;99.90
7030;DHT22;3556;53.500;10.176;2023-01-04T08:32:08;8.90;99.90
7030;DHT22;3556;53.500;10.176;2023-01-04T08:34:33;8.90;99.90
7030;DHT22;3556;53.500;10.176;2023-01-04T08:37:00;8.90;99.90
7030;DHT22;3556;53.500;10.176;2023-01-04T08:39:26;8.90;99.90
7030;DHT22;3556;53.500;10.176;2023-01-04T08:41:54;8.90;99.90
7030;DHT22;3556;53.500;10.176;2023-01-04T08:44:21;9.00;99.90
7030;DHT22;3556;53.500;10.176;2023-01-04T08:46:47;9.00;99.90
7030;DHT22;3556;53.500;10.176;2023-01-04T08:49:14;9.10;99.90
7030;DHT22;3556;53.500;10.176;2023-01-04T08:51:40;9.10;99.90
7030;DHT22;3556;53.500;10.176;2023-01-04T08:54:06;9.20;99.90
7030;DHT22;3556;53.500;10.176;2023-01-04T08:56:31;9.10;99.90
7030;DHT22;3556;53.500;10.176;2023-01-04T08:58:57;9.20;99.90
7030;DHT22;3556;53.500;10.176;2023-01-04T09:01:23;9.20;99.90
7030;DHT22;3556;53.500;10.176;2023-01-04T09:03:48;9.20;99.90
7030;DHT22;3556;53.500;10.176;2023-01-04T09:06:14;9.30;99.90
7030;DHT22;3556;53.500;10.176;2023-01-04T09:08:41;9.30;99.90
7030;DHT22;3556;53.500;10.176;2023-01-04T09:11:15;9.30;99.90
7030;DHT22;3556;53.500;10.176;2023-01-04T09:13:41;9.40;99.90
7030;DHT22;3556;53.500;10.176;2023-01-04T09:16:13;9.40;99.90
7030;DHT22;3556;53.500;10.176;2023-01-04T09:18:39;9.40;99.90
7030;DHT22;3556;53.500;10.176;2023-01-04T09:21:09;9.50;99.90
7030;DHT22;3556;53.500;10.176;2023-01-04T09:23:36;9.50;99.90
7030;DHT22;3556;53.500;10.176;2023-01-04T09:26:07;9.60;99.90
7030;DHT22;3556;53.500;10.176;2023-01-04T09:28:33;9.60;99.90
7030;DHT22;3556;53.500;10.176;2023-01-04T09:31:07;9.70;99.90
7030;DHT22;3556;53.500;10.176;2023-01-04T09:33:33;9.70;99.90
7030;DHT22;3556;53.500;10.176;2023-01-04T09:36:06;9.70;99.90
7030;DHT22;3556;53.500;10.176;2023-01-04T09:38:33;9.70;99.90
7030;DHT22;3556;53.500;10.176;2023-01-04T09:43:51;9.80;99.90
7030;DHT22;3556;53.500;10.176;2023-01-04T09:46:37;9.90;99.90
7030;DHT22;3556;53.500;10.176;2023-01-04T09:49:22;9.90;99.90
7030;DHT22;3556;53.500;10.176;2023-01-04T09:54:44;9.90;99.90
7030;DHT22;3556;53.500;10.176;2023-01-04T09:57:26;9.90;99.90
7030;DHT22;3556;53.500;10.176;2023-01-04T09:59:58;9.90;99.90
7030;DHT22;3556;53.500;10.176;2023-01-04T10:02:39;9.90;99.90
7030;DHT22;3556;53.500;10.176;2023-01-04T10:05:06;9.90;99.90
7030;DHT22;3556;53.500;10.176;2023-01-04T10:07:33;9.90;99.90
7030;DHT22;3556;53.500;10.176;2023-01-04T10:09:59;9.90;99.90
7030;DHT22;3556;53.500;10.176;2023-01-04T10:20:54;10.00;99.90
7030;DHT22;3556;53.500;10.176;2023-01-04T10:28:41;10.00;99.90
7030;DHT22;3556;53.500;10.176;2023-01-04T10:31:19;10.00;99.90
7030;DHT22;3556;53.500;10.176;2023-01-04T10:33:50;10.00;99.90
7030;DHT22;3556;53.500;10.176;2023-01-04T10:36:21;10.00;99.90
7030;DHT22;3556;53.500;10.176;2023-01-04T10:39:01;10.00;99.90
7030;DHT22;3556;53.500;10.176;2023-01-04T10:41:33;10.00;99.90
7030;DHT22;3556;53.500;10.176;2023-01-04T10:44:16;10.00;99.90
7030;DHT22;3556;53.500;10.176;2023-01-04T10:46:55;10.00;99.90
7030;DHT22;3556;53.500;10.176;2023-01-04T10:49:33;10.10;99.90
7030;DHT22;3556;53.500;10.176;2023-01-04T10:54:34;10.10;99.90
7030;DHT22;3556;53.500;10.176;2023-01-04T10:57:08;10.20;99.90
7030;DHT22;3556;53.500;10.176;2023-01-04T10:59:41;10.20;99.90
7030;DHT22;3556;53.500;10.176;2023-01-04T11:02:37;10.20;99.90
7030;DHT22;3556;53.500;10.176;2023-01-04T11:05:16;10.20;99.90
7030;DHT22;3556;53.500;10.176;2023-01-04T11:07:58;10.20;99.90
7030;DHT22;3556;53.500;10.176;2023-01-04T11:10:41;10.20;99.90
7030;DHT22;3556;53.500;10.176;2023-01-04T11:13:07;10.30;99.90
7030;DHT22;3556;53.500;10.176;2023-01-04T11:15:34;10.30;99.90
7030;DHT22;3556;53.500;10.176;2023-01-04T11:18:02;10.30;99.90
7030;DHT22;3556;53.500;10.176;2023-01-04T11:20:29;10.30;99.90
7030;DHT22;3556;53.500;10.176;2023-01-04T11:25:51;10.30;99.90
7030;DHT22;3556;53.500;10.176;2023-01-04T11:28:30;10.30;99.90
7030;DHT22;3556;53.500;10.176;2023-01-04T11:33:57;10.30;99.90
7030;DHT22;3556;53.500;10.176;2023-01-04T11:36:45;10.30;99.90
7030;DHT22;3556;53.500;10.176;2023-01-04T11:39:20;10.40;99.90
7030;DHT22;3556;53.500;10.176;2023-01-04T11:42:00;10.40;99.90
7030;DHT22;3556;53.500;10.176;2023-01-04T11:44:30;10.40;99.90
7030;DHT22;3556;53.500;10.176;2023-01-04T11:47:17;10.40;99.90
7030;DHT22;3556;53.500;10.176;2023-01-04T11:49:43;10.50;99.90
7030;DHT22;3556;53.500;10.176;2023-01-04T11:52:29;10.50;99.90
7030;DHT22;3556;53.500;10.176;2023-01-04T11:54:56;10.40;99.90
7030;DHT22;3556;53.500;10.176;2023-01-04T11:57:23;10.50;99.90
7030;DHT22;3556;53.500;10.176;2023-01-04T12:00:12;10.40;99.90
7030;DHT22;3556;53.500;10.176;2023-01-04T12:02:38;10.50;99.90
7030;DHT22;3556;53.500;10.176;2023-01-04T12:05:24;10.50;99.90
7030;DHT22;3556;53.500;10.176;2023-01-04T12:07:50;10.50;99.90
7030;DHT22;3556;53.500;10.176;2023-01-04T12:10:23;10.50;99.90
7030;DHT22;3556;53.500;10.176;2023-01-04T12:12:52;10.50;99.90
7030;DHT22;3556;53.500;10.176;2023-01-04T12:15:51;10.60;99.90
7030;DHT22;3556;53.500;10.176;2023-01-04T12:18:25;10.60;99.90
7030;DHT22;3556;53.500;10.176;2023-01-04T12:20:52;10.60;99.90
7030;DHT22;3556;53.500;10.176;2023-01-04T12:23:17;10.60;99.90
7030;DHT22;3556;53.500;10.176;2023-01-04T12:25:49;10.60;99.90
7030;DHT22;3556;53.500;10.176;2023-01-04T12:28:33;10.70;99.90
7030;DHT22;3556;53.500;10.176;2023-01-04T12:33:48;10.80;99.90
7030;DHT22;3556;53.500;10.176;2023-01-04T12:36:18;10.80;99.90
7030;DHT22;3556;53.500;10.176;2023-01-04T12:46:57;10.90;99.90
7030;DHT22;3556;53.500;10.176;2023-01-04T12:49:59;10.90;99.90
7030;DHT22;3556;53.500;10.176;2023-01-04T12:54:56;10.90;99.90
7030;DHT22;3556;53.500;10.176;2023-01-04T12:57:32;10.90;99.90
7030;DHT22;3556;53.500;10.176;2023-01-04T13:00:00;10.90;99.90
7030;DHT22;3556;53.500;10.176;2023-01-04T13:02:37;11.00;99.90
7030;DHT22;3556;53.500;10.176;2023-01-04T13:07:44;11.00;99.90
7030;DHT22;3556;53.500;10.176;2023-01-04T13:10:19;11.00;99.90
7030;DHT22;3556;53.500;10.176;2023-01-04T13:17:52;11.00;99.90
7030;DHT22;3556;53.500;10.176;2023-01-04T13:20:23;11.00;99.90
7030;DHT22;3556;53.500;10.176;2023-01-04T13:22:54;11.00;99.90
7030;DHT22;3556;53.500;10.176;2023-01-04T13:25:22;11.00;99.90
7030;DHT22;3556;53.500;10.176;2023-01-04T13:27:59;11.00;99.90
7030;DHT22;3556;53.500;10.176;2023-01-04T13:30:36;11.00;99.90
7030;DHT22;3556;53.500;10.176;2023-01-04T13:33:28;11.00;99.90
7030;DHT22;3556;53.500;10.176;2023-01-04T13:36:09;11.00;99.90
7030;DHT22;3556;53.500;10.176;2023-01-04T13:38:38;11.00;99.90
7030;DHT22;3556;53.500;10.176;2023-01-04T13:41:19;11.00;99.90
7030;DHT22;3556;53.500;10.176;2023-01-04T13:44:05;11.00;99.90
7030;DHT22;3556;53.500;10.176;2023-01-04T13:46:35;11.00;99.90
7030;DHT22;3556;53.500;10.176;2023-01-04T13:49:01;11.00;99.90
7030;DHT22;3556;53.500;10.176;2023-01-04T13:51:29;11.00;99.90
7030;DHT22;3556;53.500;10.176;2023-01-04T13:54:02;11.00;99.90
7030;DHT22;3556;53.500;10.176;2023-01-04T13:56:30;11.00;99.90
7030;DHT22;3556;53.500;10.176;2023-01-04T13:58:57;11.00;99.90
7030;DHT22;3556;53.500;10.176;2023-01-04T14:01:30;11.00;99.90
7030;DHT22;3556;53.500;10.176;2023-01-04T14:03:59;11.00;99.90
7030;DHT22;3556;53.500;10.176;2023-01-04T14:06:43;11.00;99.90
7030;DHT22;3556;53.500;10.176;2023-01-04T14:19:47;11.00;99.90
7030;DHT22;3556;53.500;10.176;2023-01-04T14:24:53;11.10;99.90
7030;DHT22;3556;53.500;10.176;2023-01-04T14:27:33;11.10;99.90
7030;DHT22;3556;53.500;10.176;2023-01-04T14:30:00;11.00;99.90
7030;DHT22;3556;53.500;10.176;2023-01-04T14:32:26;11.00;99.90
7030;DHT22;3556;53.500;10.176;2023-01-04T14:34:53;11.00;99.90
7030;DHT22;3556;53.500;10.176;2023-01-04T14:37:19;11.00;99.90
7030;DHT22;3556;53.500;10.176;2023-01-04T14:39:44;10.90;99.90
7030;DHT22;3556;53.500;10.176;2023-01-04T14:42:24;10.90;99.90
7030;DHT22;3556;53.500;10.176;2023-01-04T14:44:50;10.90;99.90
7030;DHT22;3556;53.500;10.176;2023-01-04T14:47:16;10.90;99.90
7030;DHT22;3556;53.500;10.176;2023-01-04T14:49:41;10.90;99.90
7030;DHT22;3556;53.500;10.176;2023-01-04T14:52:19;10.90;99.90
7030;DHT22;3556;53.500;10.176;2023-01-04T14:54:45;10.90;99.90
7030;DHT22;3556;53.500;10.176;2023-01-04T14:57:12;10.90;99.90
7030;DHT22;3556;53.500;10.176;2023-01-04T14:59:39;10.80;99.90
7030;DHT22;3556;53.500;10.176;2023-01-04T15:02:05;10.80;99.90
7030;DHT22;3556;53.500;10.176;2023-01-04T15:04:30;10.80;99.90
7030;DHT22;3556;53.500;10.176;2023-01-04T15:06:59;10.70;99.90
7030;DHT22;3556;53.500;10.176;2023-01-04T15:09:26;10.70;99.90
7030;DHT22;3556;53.500;10.176;2023-01-04T15:11:51;10.70;99.90
7030;DHT22;3556;53.500;10.176;2023-01-04T15:14:17;10.70;99.90
7030;DHT22;3556;53.500;10.176;2023-01-04T15:16:43;10.70;99.90
7030;DHT22;3556;53.500;10.176;2023-01-04T15:19:09;10.70;99.90
7030;DHT22;3556;53.500;10.176;2023-01-04T15:21:34;10.70;99.90
7030;DHT22;3556;53.500;10.176;2023-01-04T15:24:00;10.70;99.90
7030;DHT22;3556;53.500;10.176;2023-01-04T15:26:26;10.70;99.90
7030;DHT22;3556;53.500;10.176;2023-01-04T15:28:52;10.70;99.90
7030;DHT22;3556;53.500;10.176;2023-01-04T15:31:17;10.70;99.90
7030;DHT22;3556;53.500;10.176;2023-01-04T15:33:43;10.70;99.90
7030;DHT22;3556;53.500;10.176;2023-01-04T15:36:14;10.80;99.90
7030;DHT22;3556;53.500;10.176;2023-01-04T15:38:40;10.80;99.90
7030;DHT22;3556;53.500;10.176;2023-01-04T15:41:10;10.80;99.90
7030;DHT22;3556;53.500;10.176;2023-01-04T15:43:57;10.80;99.90
7030;DHT22;3556;53.500;10.176;2023-01-04T15:46:22;10.80;99.90
7030;DHT22;3556;53.500;10.176;2023-01-04T15:48:48;10.90;99.90
7030;DHT22;3556;53.500;10.176;2023-01-04T15:51:13;10.90;99.90
7030;DHT22;3556;53.500;10.176;2023-01-04T15:53:39;10.90;99.90
7030;DHT22;3556;53.500;10.176;2023-01-04T15:56:07;11.00;99.90
7030;DHT22;3556;53.500;10.176;2023-01-04T15:58:32;11.00;99.90
7030;DHT22;3556;53.500;10.176;2023-01-04T16:00:58;11.10;99.90
7030;DHT22;3556;53.500;10.176;2023-01-04T16:03:24;11.10;99.90
7030;DHT22;3556;53.500;10.176;2023-01-04T16:05:49;11.10;99.90
7030;DHT22;3556;53.500;10.176;2023-01-04T16:08:15;11.20;99.90
7030;DHT22;3556;53.500;10.176;2023-01-04T16:10:41;11.10;99.90
7030;DHT22;3556;53.500;10.176;2023-01-04T16:13:06;11.10;99.90
7030;DHT22;3556;53.500;10.176;2023-01-04T16:15:32;11.10;99.90
7030;DHT22;3556;53.500;10.176;2023-01-04T16:17:58;11.10;99.90
7030;DHT22;3556;53.500;10.176;2023-01-04T16:20:23;11.20;99.90
7030;DHT22;3556;53.500;10.176;2023-01-04T16:22:49;11.20;99.90
7030;DHT22;3556;53.500;10.176;2023-01-04T16:25:14;11.30;99.90
7030;DHT22;3556;53.500;10.176;2023-01-04T16:27:40;11.30;99.90
7030;DHT22;3556;53.500;10.176;2023-01-04T16:30:09;11.30;99.90
7030;DHT22;3556;53.500;10.176;2023-01-04T16:32:38;11.30;99.90
7030;DHT22;3556;53.500;10.176;2023-01-04T16:35:04;11.30;99.90
7030;DHT22;3556;53.500;10.176;2023-01-04T16:37:30;11.30;99.90
7030;DHT22;3556;53.500;10.176;2023-01-04T16:39:55;11.30;99.90
7030;DHT22;3556;53.500;10.176;2023-01-04T16:42:21;11.30;99.90
7030;DHT22;3556;53.500;10.176;2023-01-04T16:44:47;11.20;99.90
7030;DHT22;3556;53.500;10.176;2023-01-04T16:47:12;11.20;99.90
7030;DHT22;3556;53.500;10.176;2023-01-04T16:49:38;11.20;99.90
7030;DHT22;3556;53.500;10.176;2023-01-04T16:52:04;11.20;99.90
7030;DHT22;3556;53.500;10.176;2023-01-04T16:54:34;11.10;99.90
7030;DHT22;3556;53.500;10.176;2023-01-04T16:57:00;11.00;99.90
7030;DHT22;3556;53.500;10.176;2023-01-04T16:59:25;10.90;99.90
7030;DHT22;3556;53.500;10.176;2023-01-04T17:01:52;10.90;99.90
7030;DHT22;3556;53.500;10.176;2023-01-04T17:04:18;10.80;99.90
7030;DHT22;3556;53.500;10.176;2023-01-04T17:06:44;10.70;99.90
7030;DHT22;3556;53.500;10.176;2023-01-04T17:09:15;10.60;99.90
7030;DHT22;3556;53.500;10.176;2023-01-04T17:11:41;10.50;99.90
7030;DHT22;3556;53.500;10.176;2023-01-04T17:14:08;10.40;99.90
7030;DHT22;3556;53.500;10.176;2023-01-04T17:16:34;10.30;99.90
7030;DHT22;3556;53.500;10.176;2023-01-04T17:19:00;10.30;99.90
7030;DHT22;3556;53.500;10.176;2023-01-04T17:21:27;10.30;99.90
7030;DHT22;3556;53.500;10.176;2023-01-04T17:23:54;10.30;99.90
7030;DHT22;3556;53.500;10.176;2023-01-04T17:26:26;10.30;99.90
7030;DHT22;3556;53.500;10.176;2023-01-04T17:28:54;10.30;99.90
7030;DHT22;3556;53.500;10.176;2023-01-04T17:31:22;10.20;99.90
7030;DHT22;3556;53.500;10.176;2023-01-04T17:33:48;10.30;99.90
7030;DHT22;3556;53.500;10.176;2023-01-04T17:36:15;10.30;99.90
7030;DHT22;3556;53.500;10.176;2023-01-04T17:38:41;10.30;99.90